Time;durP1;ratioP1;P1;durP2;ratioP2;P2;SDS_P1;SDS_P2;PMS_P1;PMS_P2;Temp;Humidity;BMP_temperature;BMP_pressure;BME280_temperature;BME280_humidity;BME280_pressure;Samples;Min_cycle;Max_cycle;Signal;HPM_P1;HPM_P2
2022/12/02 00:00:55;;;;;;;96.07;56.63;;;;;;;4.72;100.00;102520.06;5013196;28;20026;-84
2022/12/02 00:03:23;;;;;;;93.38;56.55;;;;;;;4.72;100.00;102517.47;5020319;28;20071;-81
2022/12/02 00:05:50;;;;;;;96.03;57.80;;;;;;;4.69;100.00;102512.31;5029656;28;20501;-83
2022/12/02 00:08:22;;;;;;;94.35;57.65;;;;;;;4.69;100.00;102523.59;5029534;28;20056;-83
2022/12/02 00:10:50;;;;;;;103.63;62.50;;;;;;;4.68;100.00;102524.50;5029775;28;20470;-81
2022/12/02 00:13:51;;;;;;;103.93;60.67;;;;;;;4.69;100.00;102525.34;5030111;28;20025;-83
2022/12/02 00:16:21;;;;;;;117.95;66.03;;;;;;;4.61;100.00;102527.28;5017682;28;20093;-81
2022/12/02 00:18:47;;;;;;;116.53;66.47;;;;;;;4.55;100.00;102519.59;5016514;28;20030;-84
2022/12/02 00:21:13;;;;;;;117.72;66.80;;;;;;;4.53;100.00;102513.56;5017818;28;20021;-81
2022/12/02 00:23:38;;;;;;;116.30;65.85;;;;;;;4.45;100.00;102512.88;5028829;28;20056;-84
2022/12/02 00:26:03;;;;;;;122.32;68.05;;;;;;;4.45;100.00;102512.88;5029406;28;20056;-84
2022/12/02 00:28:29;;;;;;;116.00;67.53;;;;;;;4.44;100.00;102505.97;5028126;28;20120;-84
2022/12/02 00:30:54;;;;;;;115.10;67.00;;;;;;;4.41;100.00;102514.69;5029287;28;20029;-84
2022/12/02 00:33:19;;;;;;;109.40;65.07;;;;;;;4.38;100.00;102509.53;5029625;28;20021;-84
2022/12/02 00:35:45;;;;;;;101.25;62.30;;;;;;;4.35;100.00;102504.38;5025243;28;20026;-84
2022/12/02 00:38:11;;;;;;;93.85;59.20;;;;;;;4.30;100.00;102499.28;5029243;28;20025;-84
2022/12/02 00:40:36;;;;;;;92.53;59.00;;;;;;;4.33;100.00;102495.75;5030536;28;20045;-84
2022/12/02 00:48:30;;;;;;;92.40;58.95;;;;;;;4.25;100.00;102490.69;5032083;28;20393;-82
2022/12/02 00:50:56;;;;;;;91.57;57.33;;;;;;;4.24;100.00;102496.81;5030231;28;20104;-82
2022/12/02 00:53:21;;;;;;;94.60;59.28;;;;;;;4.27;100.00;102496.75;5022341;28;20108;-83
2022/12/02 00:55:46;;;;;;;90.95;58.63;;;;;;;4.27;100.00;102488.91;5032420;28;20044;-84
2022/12/02 00:58:12;;;;;;;90.72;58.45;;;;;;;4.21;100.00;102483.84;5030120;28;20052;-84
2022/12/02 01:00:37;;;;;;;90.40;56.70;;;;;;;4.23;100.00;102486.41;5153374;22;21024;-81
2022/12/02 01:03:03;;;;;;;89.90;57.97;;;;;;;4.19;100.00;102487.38;5070608;28;20047;-81
2022/12/02 01:05:28;;;;;;;97.63;59.90;;;;;;;4.15;100.00;102489.19;5061825;28;20074;-81
2022/12/02 01:07:53;;;;;;;98.60;59.30;;;;;;;4.10;100.00;102485.81;5054820;28;20507;-81
2022/12/02 01:10:19;;;;;;;90.90;58.25;;;;;;;4.05;100.00;102480.72;5042127;28;20013;-81
2022/12/02 01:12:44;;;;;;;95.10;58.72;;;;;;;4.08;100.00;102483.25;5064654;28;20040;-78
2022/12/02 01:15:10;;;;;;;92.22;58.03;;;;;;;4.06;100.00;102484.19;5070969;28;20029;-77
2022/12/02 01:17:35;;;;;;;91.30;56.97;;;;;;;4.03;100.00;102487.72;5063128;28;20048;-77
2022/12/02 01:20:01;;;;;;;87.88;55.47;;;;;;;4.04;100.00;102485.97;5033938;28;20021;-78
2022/12/02 01:22:26;;;;;;;89.15;56.10;;;;;;;4.02;100.00;102482.53;5067800;28;20047;-78
2022/12/02 01:24:51;;;;;;;89.63;55.40;;;;;;;4.04;100.00;102480.75;5071514;28;20421;-78
2022/12/02 01:27:17;;;;;;;88.03;56.50;;;;;;;4.02;100.00;102482.53;5056412;28;20028;-78
2022/12/02 01:29:42;;;;;;;82.50;53.95;;;;;;;4.00;99.54;102486.88;5055410;28;20031;-79
2022/12/02 01:32:08;;;;;;;84.68;54.90;;;;;;;3.95;100.00;102484.38;5051371;28;20025;-79
2022/12/02 01:34:36;;;;;;;85.70;54.17;;;;;;;3.96;100.00;102482.63;5044032;28;20024;-79
2022/12/02 01:37:02;;;;;;;85.68;54.30;;;;;;;3.97;100.00;102482.59;5061318;28;20020;-79
2022/12/02 01:39:27;;;;;;;83.63;55.03;;;;;;;3.96;100.00;102480.03;5052125;28;20039;-79
2022/12/02 01:41:53;;;;;;;87.78;56.63;;;;;;;3.96;100.00;102482.63;5051223;28;20051;-79
2022/12/02 01:44:18;;;;;;;85.28;55.03;;;;;;;3.96;100.00;102490.44;5035582;28;20474;-79
2022/12/02 01:46:44;;;;;;;85.45;55.40;;;;;;;3.98;100.00;102491.25;5032920;28;20035;-79
2022/12/02 01:49:09;;;;;;;90.78;56.67;;;;;;;3.98;100.00;102491.25;5033739;28;20052;-79
2022/12/02 01:51:35;;;;;;;93.20;56.55;;;;;;;3.97;100.00;102486.94;5052003;28;20533;-82
2022/12/02 01:54:00;;;;;;;91.78;57.70;;;;;;;3.96;100.00;102488.69;5037410;28;20035;-82
2022/12/02 01:56:26;;;;;;;94.97;57.75;;;;;;;3.96;100.00;102490.44;5061500;28;20178;-79
2022/12/02 01:58:52;;;;;;;88.75;55.30;;;;;;;3.96;100.00;102473.06;5055302;28;20100;-78
2022/12/02 02:01:28;;;;;;;88.32;55.20;;;;;;;3.90;100.00;102480.16;5037390;28;20128;-79
2022/12/02 02:03:54;;;;;;;90.35;54.47;;;;;;;3.87;100.00;102478.47;5051761;28;20436;-79
2022/12/02 02:06:20;;;;;;;90.72;55.70;;;;;;;3.86;100.00;102475.91;5058142;28;20029;-78
2022/12/02 02:08:46;;;;;;;85.05;54.38;;;;;;;3.89;100.00;102481.03;5055733;28;20024;-77
2022/12/02 02:11:11;;;;;;;88.07;53.20;;;;;;;3.88;100.00;102480.19;5070994;28;20032;-77
2022/12/02 02:13:37;;;;;;;89.03;54.35;;;;;;;3.88;100.00;102479.31;5068196;28;20381;-79
2022/12/02 02:16:02;;;;;;;89.13;53.80;;;;;;;3.87;100.00;102482.81;5034559;28;20030;-77
2022/12/02 02:18:28;;;;;;;86.82;53.45;;;;;;;3.89;100.00;102474.09;5050780;28;20032;-77
2022/12/02 02:20:56;;;;;;;85.07;53.08;;;;;;;3.88;100.00;102479.31;5071129;28;20678;-77
2022/12/02 02:23:26;;;;;;;90.05;53.97;;;;;;;3.84;100.00;102475.06;5050882;28;20542;-81
2022/12/02 02:25:55;;;;;;;87.30;54.63;;;;;;;3.84;100.00;102475.06;5069665;28;20059;-77
2022/12/02 02:28:23;;;;;;;89.80;54.35;;;;;;;3.84;100.00;102470.72;5068508;28;20031;-77
2022/12/02 02:30:50;;;;;;;87.13;54.08;;;;;;;3.85;100.00;102476.78;5065284;28;20467;-78
2022/12/02 02:33:16;;;;;;;90.70;54.22;;;;;;;3.77;100.00;102462.19;5031896;28;20036;-78
2022/12/02 02:35:43;;;;;;;88.65;53.95;;;;;;;3.75;100.00;102466.56;5036226;28;20025;-79
2022/12/02 02:38:13;;;;;;;93.40;55.45;;;;;;;3.72;100.00;102469.22;5050566;28;20108;-78
2022/12/02 02:40:39;;;;;;;87.95;53.20;;;;;;;3.75;100.00;102458.75;5050947;28;20646;-78
2022/12/02 02:43:05;;;;;;;91.78;55.35;;;;;;;3.76;100.00;102468.28;5064388;28;20116;-78
2022/12/02 02:45:34;;;;;;;90.72;54.97;;;;;;;3.71;100.00;102464.91;5063909;28;20024;-78
2022/12/02 02:48:02;;;;;;;91.35;57.05;;;;;;;3.69;100.00;102458.00;5057808;28;20025;-78
2022/12/02 02:50:28;;;;;;;91.22;56.50;;;;;;;3.68;100.00;102451.94;5038052;28;20028;-78
2022/12/02 02:52:54;;;;;;;88.22;56.13;;;;;;;3.65;100.00;102457.22;5052799;28;20119;-78
2022/12/02 02:55:23;;;;;;;87.55;56.38;;;;;;;3.60;100.00;102459.06;5052037;28;20066;-78
2022/12/02 02:57:49;;;;;;;89.97;55.10;;;;;;;3.56;100.00;102453.91;5050735;28;20496;-78
2022/12/02 03:00:16;;;;;;;89.13;55.42;;;;;;;3.49;100.00;102450.56;5050336;28;20109;-78
2022/12/02 03:02:45;;;;;;;88.10;54.35;;;;;;;3.41;100.00;102444.66;5043267;28;20135;-78
2022/12/02 03:05:11;;;;;;;87.53;54.42;;;;;;;3.39;100.00;102447.28;5061221;28;20107;-77
2022/12/02 03:07:37;;;;;;;86.13;53.20;;;;;;;3.34;100.00;102445.66;5066582;28;20032;-77
2022/12/02 03:10:04;;;;;;;87.55;53.42;;;;;;;3.35;100.00;102443.03;5069920;28;20455;-77
2022/12/02 03:12:30;;;;;;;81.18;52.13;;;;;;;3.32;99.93;102442.22;5069064;28;20062;-77
2022/12/02 03:14:56;;;;;;;84.40;52.70;;;;;;;3.34;100.00;102430.91;5037010;28;20032;-77
2022/12/02 03:17:22;;;;;;;76.55;50.38;;;;;;;3.30;99.55;102423.19;5040435;28;20028;-78
2022/12/02 03:19:47;;;;;;;77.95;49.67;;;;;;;3.27;99.35;102428.47;5048141;28;20031;-78
2022/12/02 03:22:13;;;;;;;75.95;49.58;;;;;;;3.25;99.06;102425.03;5049893;28;20027;-78
2022/12/02 03:24:39;;;;;;;76.75;49.33;;;;;;;3.23;98.92;102432.00;5051857;28;20028;-78
2022/12/02 03:27:07;;;;;;;75.03;48.83;;;;;;;3.18;98.00;102428.59;5032244;28;20019;-78
2022/12/02 03:29:32;;;;;;;77.35;49.70;;;;;;;3.13;97.52;102429.53;5049814;28;20047;-78
2022/12/02 03:31:59;;;;;;;76.32;50.30;;;;;;;3.14;97.93;102428.66;5069275;28;20021;-79
2022/12/02 03:34:25;;;;;;;73.88;49.97;;;;;;;3.09;97.56;102430.47;5069587;28;20028;-79
2022/12/02 03:36:51;;;;;;;75.85;49.47;;;;;;;3.03;97.25;102433.19;5070157;28;20029;-79
2022/12/02 03:39:17;;;;;;;77.88;50.55;;;;;;;3.03;98.16;102438.38;5041820;28;20103;-79
2022/12/02 03:41:44;;;;;;;74.40;49.25;;;;;;;2.96;97.67;102439.38;5055407;28;20059;-78
2022/12/02 03:44:10;;;;;;;74.80;48.40;;;;;;;2.97;98.30;102438.50;5062105;28;20081;-79
2022/12/02 03:46:35;;;;;;;73.93;48.05;;;;;;;2.96;97.25;102433.31;5037361;28;20028;-79
2022/12/02 03:49:01;;;;;;;71.10;47.17;;;;;;;2.94;98.09;102435.94;5041178;28;20021;-79
2022/12/02 03:51:27;;;;;;;74.78;49.15;;;;;;;2.89;96.89;102413.53;5065577;28;20037;-79
2022/12/02 03:53:53;;;;;;;75.30;49.28;;;;;;;2.87;97.38;102416.16;5067653;28;20029;-79
2022/12/02 03:56:19;;;;;;;75.32;48.50;;;;;;;2.89;97.15;102421.31;5040158;28;20043;-79
2022/12/02 03:58:50;;;;;;;78.75;49.08;;;;;;;2.86;97.44;102424.84;5054770;28;20396;-79
2022/12/02 04:01:16;;;;;;;79.47;49.03;;;;;;;2.82;97.36;102410.19;5053118;28;20044;-79
2022/12/02 04:03:42;;;;;;;78.07;50.35;;;;;;;2.81;97.14;102413.66;5051183;28;20314;-79
2022/12/02 04:06:08;;;;;;;75.88;49.13;;;;;;;2.80;97.53;102396.31;5031684;28;20116;-79
2022/12/02 04:08:33;;;;;;;74.25;48.63;;;;;;;2.82;97.86;102404.97;5054193;28;20392;-79
2022/12/02 04:10:59;;;;;;;77.97;49.55;;;;;;;2.78;97.91;102411.06;5065385;28;20028;-79
2022/12/02 04:13:24;;;;;;;78.05;50.60;;;;;;;2.77;97.71;102406.75;5049424;28;20025;-79
2022/12/02 04:15:50;;;;;;;76.88;49.47;;;;;;;2.77;98.50;102409.38;5055961;28;20500;-79
2022/12/02 04:18:15;;;;;;;78.90;49.50;;;;;;;2.80;98.86;102401.50;5056937;28;20021;-79
2022/12/02 04:20:40;;;;;;;78.72;51.13;;;;;;;2.83;98.89;102396.28;5035258;28;20053;-79
2022/12/02 04:23:06;;;;;;;77.07;50.55;;;;;;;2.83;98.94;102401.50;5052839;28;20123;-79
2022/12/02 04:25:33;;;;;;;75.85;49.38;;;;;;;2.85;98.47;102404.91;5052984;28;20031;-78
2022/12/02 04:27:58;;;;;;;78.60;49.97;;;;;;;2.86;99.05;102395.38;5052564;28;20043;-79
2022/12/02 04:30:24;;;;;;;78.15;51.03;;;;;;;2.84;98.78;102392.81;5052675;28;20501;-79
2022/12/02 04:32:49;;;;;;;75.75;48.45;;;;;;;2.85;98.81;102393.66;5051775;28;20040;-79
2022/12/02 04:35:15;;;;;;;74.50;46.63;;;;;;;2.86;99.07;102391.03;5072233;28;20028;-76
2022/12/02 04:37:40;;;;;;;69.00;44.20;;;;;;;2.83;99.14;102398.91;5059902;28;20362;-79
2022/12/02 04:40:06;;;;;;;74.18;46.42;;;;;;;2.83;99.08;102391.09;5034890;28;20021;-79
2022/12/02 04:42:31;;;;;;;72.10;46.83;;;;;;;2.78;99.70;102395.47;5037992;28;20033;-77
2022/12/02 04:44:57;;;;;;;77.32;46.97;;;;;;;2.76;99.10;102403.31;5048309;28;20043;-77
2022/12/02 04:47:22;;;;;;;77.47;46.15;;;;;;;2.74;99.42;102392.09;5042922;28;20050;-77
2022/12/02 04:49:48;;;;;;;75.95;46.72;;;;;;;2.72;98.92;102398.19;5070903;28;20110;-78
2022/12/02 04:52:14;;;;;;;74.28;45.78;;;;;;;2.73;99.62;102389.50;5042895;28;20400;-78
2022/12/02 04:54:39;;;;;;;75.43;45.58;;;;;;;2.72;100.00;102390.41;5069435;28;20039;-78
2022/12/02 04:57:05;;;;;;;72.93;44.70;;;;;;;2.69;99.33;102393.03;5070461;28;20024;-78
2022/12/02 04:59:30;;;;;;;74.38;44.53;;;;;;;2.68;98.86;102391.34;5069967;28;20029;-78
2022/12/02 05:01:55;;;;;;;71.18;43.20;;;;;;;2.64;98.92;102389.66;5035721;28;20044;-78
2022/12/02 05:04:22;;;;;;;73.93;43.47;;;;;;;2.61;98.69;102384.53;5049524;28;20043;-78
2022/12/02 05:06:47;;;;;;;69.82;42.90;;;;;;;2.56;98.57;102386.34;5061477;28;20032;-76
2022/12/02 05:09:13;;;;;;;67.22;41.55;;;;;;;2.59;99.00;102381.94;5074194;28;20028;-76
2022/12/02 05:11:38;;;;;;;63.70;39.15;;;;;;;2.57;97.42;102383.72;5072557;28;20380;-79
2022/12/02 05:14:03;;;;;;;52.15;35.13;;;;;;;2.59;96.06;102376.75;5072445;28;20032;-77
2022/12/02 05:16:29;;;;;;;54.80;35.40;;;;;;;2.63;95.69;102382.75;5060181;28;20040;-77
2022/12/02 05:18:54;;;;;;;55.80;35.90;;;;;;;2.59;96.45;102374.16;5051980;28;20025;-78
2022/12/02 05:21:19;;;;;;;55.53;36.78;;;;;;;2.61;96.23;102359.41;5036354;28;20021;-78
2022/12/02 05:23:45;;;;;;;55.90;38.08;;;;;;;2.61;96.05;102363.75;5070947;28;20503;-79
2022/12/02 05:26:11;;;;;;;60.72;39.58;;;;;;;2.61;96.41;102363.75;5045937;28;20111;-78
2022/12/02 05:28:36;;;;;;;61.60;39.42;;;;;;;2.64;96.34;102368.88;5072536;28;20021;-79
2022/12/02 05:31:01;;;;;;;60.55;39.03;;;;;;;2.62;97.05;102368.06;5038635;28;20043;-79
2022/12/02 05:33:27;;;;;;;59.47;38.50;;;;;;;2.63;96.37;102361.97;5034543;28;20024;-79
2022/12/02 05:35:52;;;;;;;58.72;38.70;;;;;;;2.64;97.15;102369.75;5052524;28;20052;-79
2022/12/02 05:38:17;;;;;;;58.70;38.60;;;;;;;2.62;96.51;102370.66;5033741;28;20067;-79
2022/12/02 05:40:43;;;;;;;62.50;39.95;;;;;;;2.65;97.22;102378.38;5043649;28;20029;-79
2022/12/02 05:43:27;;;;;;;62.03;39.03;;;;;;;2.68;97.59;102367.94;5059644;28;20035;-79
2022/12/02 05:45:56;;;;;;;58.17;38.58;;;;;;;2.64;97.30;102354.16;5033622;28;20025;-77
2022/12/02 05:48:21;;;;;;;61.80;39.03;;;;;;;2.63;97.16;102359.38;5033661;28;20025;-78
2022/12/02 05:50:47;;;;;;;58.75;37.22;;;;;;;2.62;96.52;102365.44;5037606;28;20323;-78
2022/12/02 05:53:26;;;;;;;57.75;36.85;;;;;;;2.62;96.56;102355.06;5051666;28;20115;-78
2022/12/02 05:55:53;;;;;;;54.90;35.92;;;;;;;2.59;96.93;102360.31;5049403;28;20032;-77
2022/12/02 05:58:19;;;;;;;60.92;37.08;;;;;;;2.56;96.10;102365.56;5056441;28;20028;-79
2022/12/02 06:00:54;;;;;;;58.88;36.67;;;;;;;2.59;97.32;102362.91;5037014;28;20119;-79
2022/12/02 06:03:20;;;;;;;56.25;36.35;;;;;;;2.57;96.27;102362.06;5044838;28;20527;-78
2022/12/02 06:05:47;;;;;;;58.08;35.92;;;;;;;2.58;96.01;102358.59;5038857;28;20032;-79
2022/12/02 06:08:22;;;;;;;56.60;34.90;;;;;;;2.58;96.24;102364.66;5038733;28;20036;-79
2022/12/02 06:10:51;;;;;;;52.90;34.08;;;;;;;2.58;97.17;102366.38;5033640;28;20036;-79
2022/12/02 06:13:21;;;;;;;52.60;33.35;;;;;;;2.56;97.14;102361.22;5055041;28;20024;-78
2022/12/02 06:15:48;;;;;;;54.53;33.30;;;;;;;2.56;96.30;102361.22;5072614;28;20384;-78
2022/12/02 06:18:16;;;;;;;54.05;33.58;;;;;;;2.54;96.52;102364.72;5052904;28;20020;-78
2022/12/02 06:20:42;;;;;;;53.13;34.47;;;;;;;2.55;96.83;102369.03;5041777;28;20029;-78
2022/12/02 06:23:14;;;;;;;57.05;33.97;;;;;;;2.53;96.46;102368.22;5039136;28;20422;-79
2022/12/02 06:25:41;;;;;;;53.15;32.80;;;;;;;2.56;96.71;102370.75;5068829;28;20107;-77
2022/12/02 06:28:24;;;;;;;53.50;32.92;;;;;;;2.57;96.99;102362.94;5070104;28;20027;-78
2022/12/02 06:30:53;;;;;;;57.63;33.95;;;;;;;2.59;97.39;102360.31;5071316;28;20115;-78
2022/12/02 06:33:35;;;;;;;54.28;33.88;;;;;;;2.59;96.83;102361.16;5051535;28;20158;-78
2022/12/02 06:36:04;;;;;;;56.35;34.72;;;;;;;2.58;97.20;102361.19;5033553;28;20121;-77
2022/12/02 06:38:33;;;;;;;51.53;33.42;;;;;;;2.55;96.86;102362.09;5038597;28;20021;-79
2022/12/02 06:41:01;;;;;;;55.58;33.53;;;;;;;2.55;96.91;102353.44;5071474;28;20028;-79
2022/12/02 06:43:29;;;;;;;52.90;33.25;;;;;;;2.55;96.32;102359.50;5069893;28;20028;-79
2022/12/02 06:45:55;;;;;;;52.30;33.13;;;;;;;2.53;96.60;102355.22;5071570;28;20029;-78
2022/12/02 06:48:25;;;;;;;51.10;32.60;;;;;;;2.53;97.40;102363.00;5050251;28;20052;-79
2022/12/02 06:50:51;;;;;;;50.40;32.70;;;;;;;2.53;97.18;102352.63;5051004;28;20041;-79
2022/12/02 06:53:36;;;;;;;51.67;32.03;;;;;;;2.54;97.01;102359.53;5053818;28;20075;-79
2022/12/02 06:56:19;;;;;;;56.67;33.60;;;;;;;2.54;97.68;102354.34;5071873;28;20024;-78
2022/12/02 06:59:00;;;;;;;52.55;32.58;;;;;;;2.55;97.53;102356.06;5069142;28;20024;-78
2022/12/02 07:01:30;;;;;;;52.50;32.08;;;;;;;2.48;97.48;102357.91;5051935;28;20037;-77
2022/12/02 07:04:07;;;;;;;53.30;33.38;;;;;;;2.46;96.95;102368.31;5070821;28;20028;-78
2022/12/02 07:06:36;;;;;;;55.92;33.22;;;;;;;2.43;97.57;102368.38;5070235;28;20036;-78
2022/12/02 07:09:16;;;;;;;55.53;33.03;;;;;;;2.45;98.10;102369.19;5070573;28;20451;-78
2022/12/02 07:11:49;;;;;;;54.55;32.17;;;;;;;2.43;97.32;102364.91;5051280;28;20028;-81
2022/12/02 07:14:48;;;;;;;48.67;31.45;;;;;;;2.46;97.64;102375.25;5051687;28;20097;-77
2022/12/02 07:17:22;;;;;;;52.38;32.30;;;;;;;2.43;97.50;102376.16;5069548;28;20021;-78
2022/12/02 07:19:53;;;;;;;51.28;31.98;;;;;;;2.40;97.65;102376.19;5069997;28;20024;-77
2022/12/02 07:22:23;;;;;;;50.65;31.98;;;;;;;2.41;97.81;102369.28;5068907;28;20036;-78
2022/12/02 07:24:54;;;;;;;51.50;32.45;;;;;;;2.40;98.35;102371.00;5069439;28;20027;-76
2022/12/02 07:27:24;;;;;;;55.88;33.00;;;;;;;2.41;98.71;102377.91;5051352;28;20024;-77
2022/12/02 07:29:51;;;;;;;54.13;33.85;;;;;;;2.43;98.96;102375.28;5070108;28;20108;-76
2022/12/02 07:32:16;;;;;;;55.85;32.25;;;;;;;2.42;98.43;102374.44;5069190;28;20393;-76
2022/12/02 07:34:41;;;;;;;55.97;32.47;;;;;;;2.42;99.03;102366.66;5067929;28;20035;-77
2022/12/02 07:37:07;;;;;;;55.38;33.25;;;;;;;2.45;99.60;102374.38;5051472;28;20048;-77
2022/12/02 07:39:32;;;;;;;52.63;31.35;;;;;;;2.42;99.17;102364.06;5058078;28;20055;-76
2022/12/02 07:41:58;;;;;;;49.35;30.33;;;;;;;2.45;98.94;102363.13;5050086;28;20496;-77
2022/12/02 07:44:23;;;;;;;47.53;29.95;;;;;;;2.45;98.78;102361.41;5066987;28;20028;-77
2022/12/02 07:46:48;;;;;;;48.42;29.20;;;;;;;2.44;98.62;102362.28;5069906;28;20029;-78
2022/12/02 07:49:15;;;;;;;46.17;29.02;;;;;;;2.46;98.78;102370.91;5051825;28;20044;-77
2022/12/02 07:51:40;;;;;;;47.83;30.30;;;;;;;2.46;98.03;102363.13;5072449;28;20472;-78
2022/12/02 07:54:06;;;;;;;46.92;29.95;;;;;;;2.46;97.87;102354.47;5070974;28;20020;-80
2022/12/02 07:56:31;;;;;;;46.35;29.05;;;;;;;2.49;98.03;102359.59;5074099;28;20072;-77
2022/12/02 07:58:56;;;;;;;45.38;28.20;;;;;;;2.51;98.28;102353.50;5071391;28;20021;-77
2022/12/02 08:01:23;;;;;;;44.20;29.02;;;;;;;2.52;97.80;102362.16;5052825;28;20269;-78
2022/12/02 08:03:48;;;;;;;42.15;28.38;;;;;;;2.54;98.19;102359.53;5054751;28;20054;-77
2022/12/02 08:06:14;;;;;;;43.17;27.65;;;;;;;2.55;97.71;102369.91;5070282;28;20433;-77
2022/12/02 08:08:39;;;;;;;45.38;29.02;;;;;;;2.55;97.34;102374.22;5073206;28;20036;-78
2022/12/02 08:11:05;;;;;;;44.30;28.23;;;;;;;2.51;97.71;102374.28;5072448;28;20391;-77
2022/12/02 08:13:30;;;;;;;44.17;28.35;;;;;;;2.50;97.57;102376.91;5072348;28;20020;-79
2022/12/02 08:15:55;;;;;;;45.60;28.92;;;;;;;2.46;97.84;102370.91;5071855;28;20115;-78
2022/12/02 08:18:21;;;;;;;49.72;31.15;;;;;;;2.46;98.10;102370.06;5072340;28;20023;-77
2022/12/02 08:20:46;;;;;;;48.92;31.08;;;;;;;2.45;98.02;102369.19;5054533;28;20073;-78
2022/12/02 08:23:11;;;;;;;48.78;29.95;;;;;;;2.46;98.33;102365.72;5073298;28;20028;-78
2022/12/02 08:25:38;;;;;;;51.33;30.63;;;;;;;2.47;98.74;102366.56;5069352;28;20029;-78
2022/12/02 08:28:03;;;;;;;51.50;31.02;;;;;;;2.46;98.73;102368.31;5064865;28;20459;-78
2022/12/02 08:30:29;;;;;;;47.03;30.10;;;;;;;2.49;99.09;102364.81;5073041;28;20052;-78
2022/12/02 08:32:54;;;;;;;51.22;30.25;;;;;;;2.53;99.14;102365.63;5073063;28;20477;-78
2022/12/02 08:35:19;;;;;;;49.90;30.58;;;;;;;2.54;99.44;102356.94;5054322;28;20056;-78
2022/12/02 08:37:46;;;;;;;47.55;29.90;;;;;;;2.55;100.00;102361.25;5073977;28;20479;-79
2022/12/02 08:40:12;;;;;;;50.10;31.35;;;;;;;2.49;100.00;102350.06;5072108;28;20025;-79
2022/12/02 08:42:37;;;;;;;54.05;32.58;;;;;;;2.53;100.00;102355.22;5060213;28;20035;-78
2022/12/02 08:45:05;;;;;;;52.45;32.13;;;;;;;2.50;100.00;102367.38;5052862;28;20060;-78
2022/12/02 08:47:31;;;;;;;51.83;32.63;;;;;;;2.47;100.00;102359.63;5052967;28;20039;-78
2022/12/02 08:49:56;;;;;;;52.65;33.38;;;;;;;2.45;100.00;102364.00;5034342;28;20025;-78
2022/12/02 08:52:23;;;;;;;56.22;34.70;;;;;;;2.44;100.00;102358.84;5052281;28;20506;-78
2022/12/02 08:54:48;;;;;;;57.80;34.60;;;;;;;2.45;100.00;102364.00;5034679;28;20488;-78
2022/12/02 08:57:14;;;;;;;56.15;34.65;;;;;;;2.45;100.00;102360.53;5051847;28;20025;-77
2022/12/02 08:59:39;;;;;;;57.78;36.17;;;;;;;2.47;100.00;102359.63;5046023;28;20047;-79
2022/12/02 09:02:04;;;;;;;59.05;35.80;;;;;;;2.44;100.00;102366.63;5046866;28;20140;-77
2022/12/02 09:04:30;;;;;;;55.20;34.60;;;;;;;2.42;100.00;102358.84;5032703;28;20037;-78
2022/12/02 09:06:55;;;;;;;55.47;34.60;;;;;;;2.42;100.00;102363.19;5071888;28;20380;-78
2022/12/02 09:09:20;;;;;;;58.50;35.40;;;;;;;2.39;100.00;102358.88;5057657;28;20040;-79
2022/12/02 09:11:46;;;;;;;54.95;32.83;;;;;;;2.44;100.00;102358.84;5050906;28;20033;-79
2022/12/02 09:14:11;;;;;;;52.88;32.13;;;;;;;2.42;100.00;102366.66;5052150;28;20414;-79
2022/12/02 09:16:38;;;;;;;51.03;32.00;;;;;;;2.46;100.00;102365.72;5048782;28;20032;-79
2022/12/02 09:19:03;;;;;;;47.50;30.05;;;;;;;2.43;100.00;102365.75;5051793;28;20067;-79
2022/12/02 09:21:29;;;;;;;48.33;30.60;;;;;;;2.48;100.00;102363.09;5052293;28;20021;-79
2022/12/02 09:23:54;;;;;;;44.03;28.55;;;;;;;2.45;100.00;102361.41;5051680;28;20020;-79
2022/12/02 09:26:20;;;;;;;47.42;29.08;;;;;;;2.46;100.00;102360.53;5055041;28;20099;-79
2022/12/02 09:28:46;;;;;;;45.35;30.42;;;;;;;2.45;100.00;102365.75;5049114;28;20028;-79
2022/12/02 09:31:12;;;;;;;43.15;27.35;;;;;;;2.44;100.00;102362.28;5048889;28;20504;-79
2022/12/02 09:33:37;;;;;;;38.35;24.48;;;;;;;2.38;100.00;102367.53;5050501;28;20389;-79
2022/12/02 09:36:06;;;;;;;39.88;25.30;;;;;;;2.31;100.00;102360.75;5043256;28;20018;-79
2022/12/02 09:38:31;;;;;;;39.92;24.38;;;;;;;2.29;100.00;102361.66;5046252;28;20390;-79
2022/12/02 09:40:58;;;;;;;39.60;26.20;;;;;;;2.34;100.00;102354.63;5049097;28;20021;-79
2022/12/02 09:43:25;;;;;;;39.55;25.77;;;;;;;2.35;100.00;102346.81;5051187;28;20032;-76
2022/12/02 09:45:50;;;;;;;39.30;24.88;;;;;;;2.36;100.00;102351.13;5050839;28;20488;-78
2022/12/02 09:48:15;;;;;;;41.40;24.58;;;;;;;2.36;100.00;102342.47;5049999;28;20036;-77
2022/12/02 09:50:41;;;;;;;41.38;24.77;;;;;;;2.34;100.00;102345.09;5051311;28;20021;-78
2022/12/02 09:53:09;;;;;;;41.00;25.58;;;;;;;2.34;100.00;102344.25;5051399;28;20063;-79
2022/12/02 09:55:36;;;;;;;43.67;26.88;;;;;;;2.32;100.00;102341.69;5049999;28;20019;-78
2022/12/02 09:58:21;;;;;;;42.05;27.13;;;;;;;2.36;100.00;102340.75;5052140;28;20452;-82
2022/12/02 10:00:50;;;;;;;42.80;27.08;;;;;;;2.32;100.00;102343.41;5052766;28;20040;-82
2022/12/02 10:03:17;;;;;;;44.75;26.73;;;;;;;2.33;100.00;102339.94;5071603;28;20035;-83
2022/12/02 10:05:43;;;;;;;41.95;25.73;;;;;;;2.38;100.00;102346.78;5070687;28;20460;-80
2022/12/02 10:08:17;;;;;;;39.90;26.20;;;;;;;2.42;100.00;102337.22;5060881;28;20033;-83
2022/12/02 10:10:43;;;;;;;42.95;26.60;;;;;;;2.40;100.00;102349.34;5053168;28;20132;-83
2022/12/02 10:13:18;;;;;;;40.53;26.48;;;;;;;2.39;100.00;102345.03;5069740;28;20028;-83
2022/12/02 10:15:44;;;;;;;43.45;27.00;;;;;;;2.40;100.00;102334.66;5071450;28;20032;-82
2022/12/02 10:18:16;;;;;;;47.03;26.15;;;;;;;2.40;100.00;102339.84;5049537;28;20070;-83
2022/12/02 10:20:42;;;;;;;43.03;27.20;;;;;;;2.39;100.00;102332.91;5025668;28;20036;-82
2022/12/02 10:23:10;;;;;;;44.75;26.48;;;;;;;2.41;100.00;102344.16;5070769;28;20688;-79
2022/12/02 10:25:37;;;;;;;46.22;26.63;;;;;;;2.36;100.00;102338.16;5052659;28;20480;-79
2022/12/02 10:28:20;;;;;;;47.03;27.00;;;;;;;2.36;100.00;102340.75;5062770;28;20035;-79
2022/12/02 10:30:54;;;;;;;53.88;29.02;;;;;;;2.35;100.00;102339.03;5069091;28;20487;-79
2022/12/02 10:33:24;;;;;;;51.75;28.20;;;;;;;2.29;100.00;102336.53;5070548;28;20099;-78
2022/12/02 10:35:51;;;;;;;51.70;29.42;;;;;;;2.30;100.00;102327.84;5070221;28;20028;-80
2022/12/02 10:38:40;;;;;;;55.22;30.80;;;;;;;2.32;100.00;102331.28;5052161;28;20549;-79
2022/12/02 10:41:14;;;;;;;57.97;31.60;;;;;;;2.31;100.00;102328.72;5069832;28;20024;-79
2022/12/02 10:43:53;;;;;;;67.50;34.45;;;;;;;2.28;100.00;102329.63;5054760;28;20097;-79
2022/12/02 10:46:22;;;;;;;62.33;32.97;;;;;;;2.28;100.00;102319.25;5048011;28;20047;-79
2022/12/02 10:48:48;;;;;;;66.20;35.13;;;;;;;2.27;100.00;102307.13;5050647;28;20420;-79
2022/12/02 10:51:16;;;;;;;65.63;34.03;;;;;;;2.32;100.00;102313.09;5069825;28;20020;-79
2022/12/02 10:53:42;;;;;;;68.53;35.05;;;;;;;2.32;100.00;102315.72;5068708;28;20369;-79
2022/12/02 10:56:16;;;;;;;74.30;36.83;;;;;;;2.36;100.00;102316.50;5069472;28;20062;-79
2022/12/02 10:58:42;;;;;;;70.07;35.17;;;;;;;2.40;100.00;102312.97;5051569;28;20374;-79
2022/12/02 11:01:10;;;;;;;73.53;35.92;;;;;;;2.39;100.00;102309.53;5048261;28;20048;-79
2022/12/02 11:03:36;;;;;;;72.88;36.10;;;;;;;2.41;100.00;102305.19;5047963;28;20112;-79
2022/12/02 11:06:04;;;;;;;71.82;36.08;;;;;;;2.41;100.00;102305.19;5048018;28;20112;-79
2022/12/02 11:08:30;;;;;;;74.47;36.45;;;;;;;2.49;100.00;102302.47;5048287;28;20031;-79
2022/12/02 11:11:25;;;;;;;64.63;34.42;;;;;;;2.57;100.00;102299.72;5047563;28;20025;-79
2022/12/02 11:14:06;;;;;;;74.25;37.55;;;;;;;2.62;100.00;102301.34;5029178;28;20124;-79
2022/12/02 11:16:31;;;;;;;72.32;37.17;;;;;;;2.62;100.00;102303.09;5047097;28;20032;-79
2022/12/02 11:19:12;;;;;;;72.75;37.30;;;;;;;2.64;100.00;102301.31;5047447;28;20039;-79